Time;durP1;ratioP1;P1;durP2;ratioP2;P2;SDS_P1;SDS_P2;PMS_P1;PMS_P2;Temp;Humidity;BMP_temperature;BMP_pressure;BME280_temperature;BME280_humidity;BME280_pressure;Samples;Min_cycle;Max_cycle;Signal;HPM_P1;HPM_P2
2021/03/26 00:01:52;;;;;;;75.60;44.88;;;11.80;75.10;;;;;;5055825;28;20589;-58
2021/03/26 00:04:18;;;;;;;63.45;41.72;;;11.80;75.20;;;;;;5070616;28;20067;-57
2021/03/26 00:06:47;;;;;;;71.22;44.25;;;11.80;75.80;;;;;;5041324;28;20041;-56
2021/03/26 00:09:19;;;;;;;78.78;47.38;;;11.80;75.20;;;;;;5052882;28;20028;-54
2021/03/26 00:11:46;;;;;;;78.55;47.97;;;11.70;75.30;;;;;;5053163;28;20035;-59
2021/03/26 00:14:13;;;;;;;73.93;48.22;;;11.70;75.50;;;;;;5058862;28;20037;-56
2021/03/26 00:16:38;;;;;;;85.30;48.88;;;11.60;76.10;;;;;;5073259;28;20025;-57
2021/03/26 00:19:05;;;;;;;77.63;48.05;;;11.60;76.20;;;;;;5068501;28;20021;-55
2021/03/26 00:21:31;;;;;;;75.50;48.35;;;11.50;76.30;;;;;;5052796;28;20025;-59
2021/03/26 00:23:57;;;;;;;74.03;47.70;;;11.60;76.10;;;;;;5054657;28;20047;-56
2021/03/26 00:26:22;;;;;;;74.40;46.90;;;11.60;75.90;;;;;;5053326;28;20547;-52
2021/03/26 00:28:49;;;;;;;77.35;47.00;;;11.50;75.90;;;;;;5053112;28;20546;-53
2021/03/26 00:31:15;;;;;;;75.93;47.00;;;11.50;76.20;;;;;;5073191;28;20063;-53
2021/03/26 00:33:40;;;;;;;77.80;48.45;;;11.30;76.70;;;;;;5072667;28;20025;-56
2021/03/26 00:36:06;;;;;;;82.63;47.75;;;11.20;77.50;;;;;;5053704;28;20125;-57
2021/03/26 00:38:32;;;;;;;75.47;48.65;;;11.00;78.00;;;;;;5047382;28;20052;-56
2021/03/26 00:40:57;;;;;;;78.55;47.58;;;11.00;77.90;;;;;;5065756;28;20036;-57
2021/03/26 00:43:23;;;;;;;78.22;47.17;;;11.10;77.70;;;;;;5061403;28;20029;-53
2021/03/26 00:45:50;;;;;;;79.40;49.75;;;11.20;77.50;;;;;;5067690;28;20028;-54
2021/03/26 00:48:18;;;;;;;79.25;50.08;;;11.20;77.00;;;;;;5061020;28;20025;-52
2021/03/26 00:50:47;;;;;;;75.10;46.80;;;11.30;77.10;;;;;;5068890;28;20035;-57
2021/03/26 00:53:28;;;;;;;81.90;49.03;;;11.20;76.90;;;;;;5062860;28;20443;-56
2021/03/26 00:55:54;;;;;;;80.30;47.72;;;11.20;76.40;;;;;;5063148;28;20033;-55
2021/03/26 00:58:21;;;;;;;78.13;50.10;;;11.10;76.70;;;;;;5061364;28;20020;-57
2021/03/26 01:00:47;;;;;;;84.65;49.33;;;11.00;77.10;;;;;;5062929;28;20499;-54
2021/03/26 01:03:13;;;;;;;81.47;49.88;;;10.90;76.60;;;;;;5062375;28;20040;-53
2021/03/26 01:05:43;;;;;;;82.97;49.05;;;10.80;76.30;;;;;;5044461;28;20040;-55
2021/03/26 01:08:08;;;;;;;78.65;48.65;;;10.90;76.10;;;;;;5065139;28;20112;-58
2021/03/26 01:10:38;;;;;;;80.10;48.95;;;10.90;75.80;;;;;;5069789;28;20159;-53
2021/03/26 01:13:06;;;;;;;82.57;48.90;;;10.90;75.90;;;;;;5066719;28;20159;-55
2021/03/26 01:15:32;;;;;;;80.80;49.28;;;10.90;75.80;;;;;;5068066;28;20040;-53
2021/03/26 01:17:59;;;;;;;69.57;45.10;;;11.00;75.80;;;;;;5064732;28;20020;-56
2021/03/26 01:20:30;;;;;;;74.22;44.95;;;11.00;75.90;;;;;;5047467;28;20239;-55
2021/03/26 01:22:56;;;;;;;72.38;46.15;;;11.00;76.50;;;;;;5061154;28;20044;-55
2021/03/26 01:25:33;;;;;;;69.82;44.13;;;11.00;76.50;;;;;;5063980;28;20047;-55
2021/03/26 01:27:59;;;;;;;74.43;46.38;;;11.00;76.50;;;;;;5060791;28;20393;-60
2021/03/26 01:30:27;;;;;;;71.50;45.50;;;11.10;77.10;;;;;;5047924;28;20032;-51
2021/03/26 01:32:53;;;;;;;77.22;47.20;;;11.10;76.10;;;;;;5069339;28;20032;-59
2021/03/26 01:35:21;;;;;;;81.55;47.53;;;11.10;75.90;;;;;;5071821;28;20385;-57
2021/03/26 01:37:47;;;;;;;85.20;52.15;;;11.10;76.00;;;;;;5072173;28;20426;-56
2021/03/26 01:40:17;;;;;;;105.45;62.97;;;11.00;76.00;;;;;;5070472;28;20067;-54
2021/03/26 01:42:43;;;;;;;93.85;55.42;;;11.10;75.90;;;;;;5072205;28;20033;-56
2021/03/26 01:45:22;;;;;;;87.63;49.95;;;11.10;75.90;;;;;;5068467;28;20094;-57
2021/03/26 01:47:49;;;;;;;74.10;48.85;;;11.10;75.80;;;;;;5051873;28;20106;-58
2021/03/26 01:50:16;;;;;;;105.13;63.38;;;11.10;75.70;;;;;;5055130;28;20110;-52
2021/03/26 01:52:42;;;;;;;114.35;67.63;;;11.10;75.60;;;;;;5071704;28;20039;-53
2021/03/26 01:55:11;;;;;;;100.13;58.95;;;11.00;75.80;;;;;;5071000;28;20059;-54
2021/03/26 01:57:36;;;;;;;83.40;51.95;;;11.00;75.90;;;;;;5071856;28;20143;-53
2021/03/26 02:00:10;;;;;;;77.47;48.05;;;11.00;76.30;;;;;;5053651;28;20086;-58
2021/03/26 02:02:36;;;;;;;76.95;45.17;;;11.00;76.50;;;;;;5051919;28;20032;-58
2021/03/26 02:05:04;;;;;;;72.32;45.78;;;11.00;76.60;;;;;;5068597;28;20552;-53
2021/03/26 02:07:30;;;;;;;69.45;44.15;;;10.90;76.80;;;;;;5053590;28;20036;-56
2021/03/26 02:09:56;;;;;;;72.35;48.25;;;10.80;76.90;;;;;;5055258;28;20041;-57
2021/03/26 02:12:28;;;;;;;81.40;49.50;;;10.70;77.00;;;;;;5051701;28;20033;-53
2021/03/26 02:15:14;;;;;;;82.45;49.63;;;10.70;76.80;;;;;;5052732;28;20033;-55
2021/03/26 02:17:40;;;;;;;75.45;49.28;;;10.60;77.10;;;;;;5052515;28;20502;-57
2021/03/26 02:20:22;;;;;;;78.57;49.00;;;10.60;77.10;;;;;;5051629;28;20536;-54
2021/03/26 02:22:47;;;;;;;84.18;52.40;;;10.50;76.80;;;;;;5051526;28;20044;-56
2021/03/26 02:25:18;;;;;;;79.93;48.53;;;10.50;76.90;;;;;;5059980;28;20028;-54
2021/03/26 02:27:44;;;;;;;80.47;47.78;;;10.50;76.80;;;;;;5071263;28;20028;-50
2021/03/26 02:30:21;;;;;;;77.90;47.80;;;10.50;77.10;;;;;;5070666;28;20455;-53
2021/03/26 02:32:48;;;;;;;80.35;47.78;;;10.40;77.30;;;;;;5051366;28;20033;-57
2021/03/26 02:35:36;;;;;;;77.57;47.60;;;10.40;77.40;;;;;;5051347;28;20560;-52
2021/03/26 02:38:17;;;;;;;79.25;47.72;;;10.40;77.30;;;;;;5071345;28;20036;-51
2021/03/26 02:40:51;;;;;;;82.68;49.70;;;10.30;77.50;;;;;;5067221;28;20033;-58
2021/03/26 02:43:23;;;;;;;71.53;46.25;;;10.40;77.30;;;;;;5033528;28;20033;-53
2021/03/26 02:46:09;;;;;;;74.85;44.55;;;10.30;77.50;;;;;;5060179;28;20094;-60
2021/03/26 02:49:00;;;;;;;63.75;41.67;;;10.20;77.80;;;;;;5070899;28;20107;-56
2021/03/26 02:51:32;;;;;;;69.20;43.63;;;10.20;78.10;;;;;;5062061;28;20053;-57
2021/03/26 02:54:27;;;;;;;68.55;44.25;;;10.20;78.40;;;;;;5051168;28;20083;-51
2021/03/26 02:56:58;;;;;;;;;;;10.30;78.20;;;;;;5063386;28;20095;-52
2021/03/26 02:59:45;;;;;;;74.93;43.35;;;10.20;77.80;;;;;;5070867;28;20282;-56
2021/03/26 03:02:14;;;;;;;74.68;44.63;;;10.00;78.50;;;;;;5069568;28;20439;-52
2021/03/26 03:05:02;;;;;;;67.80;44.22;;;9.90;79.00;;;;;;5071152;28;20033;-54
2021/03/26 03:07:34;;;;;;;80.35;46.08;;;9.90;79.30;;;;;;5053936;28;20127;-57
2021/03/26 03:10:39;;;;;;;70.35;43.03;;;9.90;79.10;;;;;;5050978;28;20032;-55
2021/03/26 03:13:24;;;;;;;76.43;47.05;;;9.90;79.10;;;;;;5006588;28;20043;-57
2021/03/26 03:16:02;;;;;;;75.57;46.42;;;9.80;79.40;;;;;;5051462;28;20120;-55
2021/03/26 03:18:31;;;;;;;74.45;45.45;;;9.80;79.30;;;;;;5050731;28;20029;-59
2021/03/26 03:21:10;;;;;;;71.35;45.50;;;9.80;79.50;;;;;;5052124;28;20473;-55
2021/03/26 03:23:52;;;;;;;85.07;50.80;;;9.80;79.20;;;;;;5071131;28;20040;-56
2021/03/26 03:26:36;;;;;;;79.05;48.33;;;9.60;79.50;;;;;;5055004;28;20626;-59
2021/03/26 03:29:21;;;;;;;76.00;45.55;;;9.50;80.20;;;;;;5070660;28;20037;-54
2021/03/26 03:31:54;;;;;;;;;;;9.50;80.10;;;;;;5063954;28;20060;-55
2021/03/26 03:34:36;;;;;;;79.97;46.38;;;9.40;80.20;;;;;;5050924;28;19920;-50
2021/03/26 03:37:30;;;;;;;72.68;44.15;;;9.40;80.60;;;;;;5037304;28;20014;-58
2021/03/26 03:39:58;;;;;;;79.68;46.13;;;9.20;81.10;;;;;;5054254;28;20108;-52
2021/03/26 03:42:32;;;;;;;83.13;48.05;;;9.10;81.70;;;;;;5065437;28;20044;-51
2021/03/26 03:45:10;;;;;;;86.03;50.05;;;9.10;82.10;;;;;;5074618;28;20032;-54
2021/03/26 03:48:01;;;;;;;81.65;48.80;;;9.10;82.10;;;;;;5061865;28;20041;-55
2021/03/26 03:50:37;;;;;;;84.47;48.97;;;9.20;81.90;;;;;;5054263;28;20579;-52
2021/03/26 03:53:25;;;;;;;79.22;47.00;;;9.10;82.00;;;;;;5055276;28;20143;-54
2021/03/26 03:56:05;;;;;;;74.80;46.97;;;9.10;81.80;;;;;;5054711;28;20119;-50
2021/03/26 03:58:38;;;;;;;72.15;45.60;;;9.20;81.60;;;;;;5073987;28;20059;-53
2021/03/26 04:01:15;;;;;;;77.03;47.05;;;9.20;81.70;;;;;;5073432;28;20039;-52
2021/03/26 04:03:47;;;;;;;76.90;47.38;;;9.20;81.60;;;;;;5053603;28;20036;-55
2021/03/26 04:06:18;;;;;;;78.80;48.38;;;9.30;81.20;;;;;;5053794;28;20033;-56
2021/03/26 04:08:54;;;;;;;71.78;44.65;;;9.30;81.10;;;;;;5073579;28;20033;-51
2021/03/26 04:11:26;;;;;;;78.55;45.92;;;9.30;81.00;;;;;;5055952;28;20060;-54
2021/03/26 04:14:04;;;;;;;80.25;45.45;;;9.30;81.00;;;;;;5053788;28;20037;-54
2021/03/26 04:16:29;;;;;;;79.47;45.42;;;9.30;80.60;;;;;;5054029;28;20098;-53
2021/03/26 04:19:05;;;;;;;71.40;44.92;;;9.30;80.50;;;;;;5073093;28;20503;-57
2021/03/26 04:21:39;;;;;;;76.95;46.38;;;9.30;80.30;;;;;;5073903;28;20549;-57
2021/03/26 04:24:13;;;;;;;76.18;45.72;;;9.00;81.10;;;;;;5072174;28;20078;-58
2021/03/26 04:26:48;;;;;;;73.07;45.38;;;8.50;82.70;;;;;;5053673;28;20053;-52
2021/03/26 04:29:31;;;;;;;76.22;46.03;;;8.10;84.50;;;;;;5053246;28;20033;-54
2021/03/26 04:32:12;;;;;;;81.72;44.67;;;8.20;84.10;;;;;;5053895;28;20040;-52
2021/03/26 04:34:40;;;;;;;82.88;47.47;;;8.30;83.80;;;;;;5053281;28;20025;-53
2021/03/26 04:37:17;;;;;;;79.68;46.30;;;8.30;83.70;;;;;;5055997;28;20488;-56
2021/03/26 04:39:55;;;;;;;72.35;45.00;;;8.40;83.20;;;;;;5072858;28;20032;-54
2021/03/26 04:42:27;;;;;;;78.68;45.10;;;8.60;82.80;;;;;;5071587;28;20028;-54
2021/03/26 04:45:03;;;;;;;80.75;45.53;;;8.70;82.40;;;;;;5073085;28;20040;-57
2021/03/26 04:47:38;;;;;;;74.82;44.65;;;8.90;81.90;;;;;;5067628;28;20036;-56
2021/03/26 04:50:29;;;;;;;74.55;44.05;;;9.00;81.60;;;;;;5052885;28;20028;-60
2021/03/26 04:53:02;;;;;;;75.63;44.15;;;9.10;80.90;;;;;;5060996;28;20388;-57
2021/03/26 04:55:36;;;;;;;72.07;45.60;;;9.20;81.00;;;;;;5073091;28;20088;-55
2021/03/26 04:58:08;;;;;;;;;;;9.20;80.50;;;;;;5064544;28;20108;-56
2021/03/26 05:00:40;;;;;;;77.57;44.17;;;9.10;80.20;;;;;;5052892;28;20027;-54
2021/03/26 05:03:12;;;;;;;79.78;46.88;;;9.00;80.50;;;;;;5060895;28;20545;-55
2021/03/26 05:05:43;;;;;;;82.30;48.25;;;8.90;80.50;;;;;;5072696;28;20032;-53
2021/03/26 05:08:10;;;;;;;83.90;47.17;;;8.90;80.80;;;;;;5070617;28;20082;-54
2021/03/26 05:10:37;;;;;;;82.82;47.70;;;8.90;81.00;;;;;;5072604;28;20042;-57
2021/03/26 05:13:18;;;;;;;94.28;50.60;;;8.70;81.40;;;;;;5065687;28;20037;-54
2021/03/26 05:15:53;;;;;;;84.32;48.40;;;8.60;82.00;;;;;;5052188;28;20117;-53
2021/03/26 05:18:25;;;;;;;;;;;8.60;82.30;;;;;;5060435;28;20123;-55
2021/03/26 05:21:02;;;;;;;83.18;47.33;;;8.40;83.00;;;;;;5072582;28;20417;-53
2021/03/26 05:23:42;;;;;;;81.80;47.85;;;8.50;82.90;;;;;;5070617;28;20048;-54
2021/03/26 05:26:08;;;;;;;82.43;47.78;;;8.80;82.30;;;;;;5054316;28;20029;-54
2021/03/26 05:28:41;;;;;;;87.22;49.25;;;8.80;81.70;;;;;;5061248;28;20057;-57
2021/03/26 05:31:25;;;;;;;73.05;46.05;;;8.90;81.60;;;;;;5072457;28;20403;-58
2021/03/26 05:33:55;;;;;;;69.97;44.22;;;9.00;81.50;;;;;;5060320;28;20029;-58
2021/03/26 05:36:32;;;;;;;75.55;45.67;;;9.10;81.50;;;;;;5034366;28;20061;-54
2021/03/26 05:39:12;;;;;;;75.95;45.70;;;9.20;81.20;;;;;;5063137;28;20037;-55
2021/03/26 05:41:50;;;;;;;80.25;46.40;;;9.30;81.00;;;;;;5071308;28;20052;-56
2021/03/26 05:44:22;;;;;;;82.57;46.10;;;9.30;81.00;;;;;;5040114;28;20048;-54
2021/03/26 05:47:13;;;;;;;75.43;46.58;;;9.20;80.10;;;;;;5052394;28;20078;-57
2021/03/26 05:50:01;;;;;;;79.07;45.22;;;8.90;81.40;;;;;;5055672;28;20036;-56
2021/03/26 05:52:39;;;;;;;81.05;46.88;;;8.60;82.60;;;;;;5052403;28;20055;-52
2021/03/26 05:55:39;;;;;;;79.15;45.97;;;8.50;83.30;;;;;;5071238;28;20044;-55
2021/03/26 05:58:11;;;;;;;79.13;46.60;;;8.70;82.90;;;;;;5070237;28;20036;-55
2021/03/26 06:01:03;;;;;;;77.70;45.95;;;8.70;82.70;;;;;;5071159;28;20033;-58
2021/03/26 06:03:55;;;;;;;78.65;46.63;;;8.80;82.70;;;;;;5066806;28;20144;-56
2021/03/26 06:06:47;;;;;;;69.82;43.80;;;9.00;82.50;;;;;;5051848;28;20039;-57
2021/03/26 06:09:50;;;;;;;75.78;47.30;;;9.10;82.20;;;;;;5061360;28;20108;-55
2021/03/26 06:12:43;;;;;;;73.00;45.05;;;9.30;81.90;;;;;;5071698;28;20025;-57
2021/03/26 06:15:49;;;;;;;78.00;46.95;;;9.30;81.80;;;;;;5051673;28;20032;-55
2021/03/26 06:18:33;;;;;;;;;;;9.30;81.30;;;;;;5070685;28;20043;-55
2021/03/26 06:21:35;;;;;;;77.75;45.63;;;9.30;81.30;;;;;;5051718;28;19913;-56
2021/03/26 06:24:21;;;;;;;70.80;43.72;;;9.40;81.30;;;;;;5052104;28;20440;-57
2021/03/26 06:27:23;;;;;;;78.85;46.00;;;9.50;81.40;;;;;;5071703;28;20041;-57
2021/03/26 06:29:58;;;;;;;69.18;44.05;;;9.30;81.30;;;;;;5069432;28;20112;-55
2021/03/26 06:32:33;;;;;;;80.35;46.83;;;9.30;81.60;;;;;;5071619;28;20123;-58
2021/03/26 06:35:34;;;;;;;78.93;46.28;;;9.30;81.80;;;;;;5057057;28;20040;-61
2021/03/26 06:38:33;;;;;;;84.10;48.88;;;9.40;81.80;;;;;;5033125;28;20037;-58
2021/03/26 06:41:29;;;;;;;79.20;47.53;;;9.40;81.60;;;;;;5050822;28;20457;-57
2021/03/26 06:44:36;;;;;;;75.72;45.10;;;9.50;82.00;;;;;;5051180;28;20032;-59
2021/03/26 06:47:30;;;;;;;82.32;48.80;;;9.70;81.60;;;;;;5051057;28;20021;-54
2021/03/26 06:50:33;;;;;;;75.60;46.83;;;9.80;81.10;;;;;;5051130;28;20083;-56
2021/03/26 06:53:27;;;;;;;68.70;43.03;;;10.00;80.80;;;;;;5019994;28;20057;-58
2021/03/26 06:56:24;;;;;;;73.88;45.95;;;10.20;80.20;;;;;;5034276;28;20032;-59
2021/03/26 06:58:50;;;;;;;76.85;44.45;;;10.30;79.90;;;;;;5052162;28;20025;-56
2021/03/26 07:01:44;;;;;;;76.25;45.60;;;10.40;79.70;;;;;;5070456;28;20032;-55
2021/03/26 07:04:40;;;;;;;74.13;47.33;;;10.30;79.80;;;;;;5066943;28;20040;-58
2021/03/26 07:07:05;;;;;;;;;;;10.40;79.40;;;;;;5051472;28;20049;-56
2021/03/26 07:09:59;;;;;;;65.85;44.30;;;10.50;79.00;;;;;;5056236;28;19942;-56
2021/03/26 07:12:52;;;;;;;76.63;45.55;;;10.70;79.00;;;;;;5074877;28;20032;-58
2021/03/26 07:15:41;;;;;;;75.07;46.45;;;10.70;78.60;;;;;;5068764;28;20041;-58
2021/03/26 07:18:32;;;;;;;72.63;45.70;;;10.70;78.60;;;;;;5018011;28;20512;-59
2021/03/26 07:21:36;;;;;;;70.70;44.50;;;10.80;78.50;;;;;;5052920;28;20132;-56
2021/03/26 07:24:39;;;;;;;74.07;45.28;;;11.00;78.30;;;;;;5043026;28;20492;-58
2021/03/26 07:27:21;;;;;;;74.85;47.00;;;11.10;77.70;;;;;;5074587;28;20043;-55
2021/03/26 07:29:56;;;;;;;77.60;47.03;;;11.20;77.80;;;;;;5068158;28;20033;-58
2021/03/26 07:32:29;;;;;;;75.10;47.38;;;11.30;77.60;;;;;;5054347;28;20116;-61
2021/03/26 07:35:35;;;;;;;73.82;46.92;;;11.30;77.90;;;;;;5060503;28;20016;-58
2021/03/26 07:38:16;;;;;;;77.05;47.83;;;11.30;78.10;;;;;;5074202;28;20164;-58
2021/03/26 07:40:41;;;;;;;71.50;47.88;;;11.20;78.30;;;;;;5061185;28;20025;-55
2021/03/26 07:43:26;;;;;;;80.18;49.92;;;11.20;79.10;;;;;;5054279;28;20040;-56
2021/03/26 07:46:10;;;;;;;81.95;49.75;;;11.40;78.40;;;;;;5066238;28;20063;-56
2021/03/26 07:48:40;;;;;;;78.03;49.33;;;11.50;78.30;;;;;;5073071;28;20056;-57
2021/03/26 07:51:29;;;;;;;80.88;49.15;;;11.60;78.40;;;;;;5065914;28;20032;-57
2021/03/26 07:54:22;;;;;;;79.97;49.67;;;11.60;78.40;;;;;;5073673;28;20086;-58
2021/03/26 07:57:02;;;;;;;80.50;49.50;;;11.50;79.20;;;;;;5073703;28;20091;-54
2021/03/26 08:00:00;;;;;;;77.68;48.97;;;11.60;79.00;;;;;;5072647;28;20495;-55
2021/03/26 08:03:09;;;;;;;86.63;50.53;;;11.90;78.60;;;;;;5058653;28;20060;-57
2021/03/26 08:06:01;;;;;;;85.15;51.88;;;11.40;80.90;;;;;;5069961;28;20051;-55
2021/03/26 08:08:39;;;;;;;82.80;51.70;;;11.40;81.50;;;;;;5073661;28;20033;-58
2021/03/26 08:11:24;;;;;;;80.10;53.53;;;11.60;80.90;;;;;;5054052;28;20514;-55
2021/03/26 08:14:05;;;;;;;89.25;58.53;;;11.90;79.40;;;;;;5053921;28;20480;-55
2021/03/26 08:16:39;;;;;;;97.53;60.55;;;11.90;77.60;;;;;;5073478;28;20111;-56
2021/03/26 08:19:19;;;;;;;91.38;60.80;;;11.90;77.50;;;;;;5072366;28;20541;-54
2021/03/26 08:22:20;;;;;;;89.70;59.13;;;11.90;77.50;;;;;;5072492;28;20063;-56
2021/03/26 08:24:46;;;;;;;95.35;61.55;;;12.20;76.30;;;;;;5064454;28;20033;-55
2021/03/26 08:27:47;;;;;;;95.63;63.00;;;12.10;76.30;;;;;;5065100;28;20518;-55
2021/03/26 08:30:54;;;;;;;95.55;61.28;;;12.00;77.20;;;;;;5054474;28;20428;-56
2021/03/26 08:33:31;;;;;;;96.07;60.53;;;11.80;78.20;;;;;;5032756;28;20057;-55
2021/03/26 08:36:14;;;;;;;91.88;58.58;;;11.70;78.30;;;;;;5053444;28;20041;-51
2021/03/26 08:38:42;;;;;;;91.53;60.60;;;12.20;77.20;;;;;;5056770;28;20021;-56
2021/03/26 08:41:16;;;;;;;91.88;60.47;;;12.50;76.00;;;;;;5053416;28;20116;-58
2021/03/26 08:43:48;;;;;;;96.53;63.30;;;12.60;75.80;;;;;;5035433;28;20187;-57
2021/03/26 08:46:20;;;;;;;102.07;62.88;;;12.60;75.30;;;;;;5067122;28;20036;-59
2021/03/26 08:48:54;;;;;;;93.47;62.97;;;12.50;75.40;;;;;;5072059;28;20044;-60
2021/03/26 08:51:25;;;;;;;97.75;62.35;;;12.40;76.10;;;;;;5072835;28;20024;-59
2021/03/26 08:54:04;;;;;;;97.45;61.13;;;12.30;76.50;;;;;;5068752;28;20127;-56
2021/03/26 08:57:12;;;;;;;88.25;58.05;;;12.50;75.90;;;;;;5053756;28;20032;-56
2021/03/26 08:59:46;;;;;;;90.45;60.03;;;12.90;74.40;;;;;;5063173;28;20526;-56
2021/03/26 09:02:31;;;;;;;89.93;57.95;;;12.90;74.40;;;;;;5072527;28;20122;-55
2021/03/26 09:05:19;;;;;;;91.87;60.07;;;13.00;73.80;;;;;;5060595;28;20503;-56
2021/03/26 09:08:15;;;;;;;86.43;57.45;;;13.10;73.50;;;;;;5053149;28;20256;-54
2021/03/26 09:11:18;;;;;;;90.38;57.83;;;13.60;72.50;;;;;;5071522;28;20033;-53
2021/03/26 09:14:12;;;;;;;91.55;59.22;;;13.50;72.70;;;;;;5071200;28;20067;-57
2021/03/26 09:17:21;;;;;;;92.40;58.85;;;13.30;72.50;;;;;;5057318;28;20027;-55
2021/03/26 09:20:15;;;;;;;95.05;61.33;;;13.40;72.30;;;;;;5042035;28;20041;-58
2021/03/26 09:22:58;;;;;;;95.20;60.40;;;13.30;73.10;;;;;;5053476;28;20083;-53
2021/03/26 09:25:47;;;;;;;87.40;58.13;;;13.50;72.30;;;;;;5070935;28;20036;-57
2021/03/26 09:28:21;;;;;;;90.35;61.53;;;13.50;72.10;;;;;;5066855;28;20495;-59
2021/03/26 09:31:11;;;;;;;89.22;58.90;;;13.40;72.80;;;;;;5056589;28;20033;-56
2021/03/26 09:33:39;;;;;;;82.32;56.47;;;13.70;71.90;;;;;;5033798;28;20045;-56
2021/03/26 09:36:15;;;;;;;84.07;56.03;;;13.20;73.10;;;;;;5035387;28;20052;-59
2021/03/26 09:38:48;;;;;;;87.78;56.50;;;13.10;74.40;;;;;;5039274;28;20525;-55
2021/03/26 09:41:32;;;;;;;88.13;57.28;;;13.00;75.10;;;;;;5070951;28;20457;-57
2021/03/26 09:44:26;;;;;;;84.10;54.92;;;13.00;74.70;;;;;;5060259;28;20495;-54
2021/03/26 09:47:10;;;;;;;87.60;55.67;;;13.20;73.60;;;;;;5039187;28;20514;-55
2021/03/26 09:49:52;;;;;;;80.32;55.80;;;12.90;74.20;;;;;;5062538;28;20456;-59
2021/03/26 09:52:27;;;;;;;87.32;57.50;;;13.00;74.00;;;;;;5068623;28;20853;-56
2021/03/26 09:54:59;;;;;;;84.47;54.90;;;12.80;74.70;;;;;;5066865;28;20032;-55
2021/03/26 09:57:59;;;;;;;79.70;52.65;;;12.90;73.90;;;;;;5062827;28;20035;-58
2021/03/26 10:00:38;;;;;;;81.63;54.67;;;13.00;73.40;;;;;;5051470;28;20040;-55
2021/03/26 10:03:43;;;;;;;80.97;52.17;;;13.00;73.30;;;;;;5062553;28;20507;-60
2021/03/26 10:06:37;;;;;;;80.90;52.63;;;13.30;72.10;;;;;;5064949;28;20113;-56
2021/03/26 10:09:25;;;;;;;78.82;53.05;;;13.50;70.80;;;;;;5062255;28;20028;-55
2021/03/26 10:11:53;;;;;;;77.22;51.42;;;13.60;71.00;;;;;;5063165;28;20095;-57
2021/03/26 10:14:24;;;;;;;81.22;53.13;;;13.80;70.50;;;;;;5042986;28;20024;-57
2021/03/26 10:17:15;;;;;;;81.32;53.97;;;13.90;70.30;;;;;;5065595;28;20549;-58
2021/03/26 10:19:54;;;;;;;80.28;52.38;;;13.80;70.00;;;;;;5062851;28;20040;-54
2021/03/26 10:22:40;;;;;;;76.25;51.17;;;13.80;69.40;;;;;;5066310;28;20507;-58
2021/03/26 10:25:16;;;;;;;77.45;49.70;;;14.10;68.10;;;;;;5068092;28;20093;-57
2021/03/26 10:27:57;;;;;;;70.93;47.72;;;14.20;68.20;;;;;;5061984;28;20499;-56
2021/03/26 10:30:27;;;;;;;72.60;49.60;;;14.40;67.60;;;;;;5064000;28;20024;-57
2021/03/26 10:32:53;;;;;;;72.97;49.80;;;14.60;66.20;;;;;;5045109;28;20036;-58
2021/03/26 10:35:23;;;;;;;71.50;49.83;;;14.60;66.30;;;;;;5064146;28;20032;-57
2021/03/26 10:38:08;;;;;;;67.40;48.58;;;14.40;66.80;;;;;;5065308;28;20047;-57
2021/03/26 10:41:02;;;;;;;70.38;49.63;;;14.30;67.00;;;;;;5063134;28;20041;-58
2021/03/26 10:43:40;;;;;;;75.80;49.22;;;14.10;67.50;;;;;;5066694;28;20028;-57
2021/03/26 10:46:14;;;;;;;70.85;49.08;;;14.00;68.20;;;;;;5062117;28;20087;-54
2021/03/26 10:48:49;;;;;;;71.45;49.17;;;14.10;68.30;;;;;;5068819;28;20123;-56
2021/03/26 10:51:42;;;;;;;68.13;49.13;;;14.20;68.10;;;;;;5074885;28;20043;-55
2021/03/26 10:54:13;;;;;;;70.03;48.38;;;14.30;67.90;;;;;;5066510;28;20046;-55
2021/03/26 10:56:45;;;;;;;71.90;49.95;;;14.30;68.00;;;;;;5060596;28;20041;-52
2021/03/26 10:59:29;;;;;;;70.53;51.15;;;14.60;66.40;;;;;;5073654;28;20085;-55
2021/03/26 11:02:17;;;;;;;69.25;48.92;;;14.10;67.40;;;;;;5063009;28;20103;-58
2021/03/26 11:04:50;;;;;;;72.88;47.97;;;14.50;66.90;;;;;;5057239;28;20031;-56
2021/03/26 11:07:22;;;;;;;69.03;49.60;;;14.60;66.00;;;;;;5056898;28;20037;-56
2021/03/26 11:09:54;;;;;;;70.22;48.42;;;14.50;66.60;;;;;;5053715;28;20085;-52
2021/03/26 11:12:29;;;;;;;71.30;48.90;;;14.70;66.40;;;;;;5053855;28;20486;-55
2021/03/26 11:15:05;;;;;;;;;;;14.90;65.50;;;;;;5075015;28;20028;-55
2021/03/26 11:17:58;;;;;;;70.60;51.30;;;15.00;64.90;;;;;;5054767;28;20014;-56
2021/03/26 11:20:35;;;;;;;70.97;50.15;;;14.70;65.80;;;;;;5059758;28;20028;-52
2021/03/26 11:23:27;;;;;;;71.20;49.47;;;14.60;66.10;;;;;;5074291;28;20024;-55
2021/03/26 11:26:04;;;;;;;69.45;49.42;;;14.60;66.40;;;;;;5065754;28;20033;-54
2021/03/26 11:28:53;;;;;;;69.38;49.53;;;14.80;66.50;;;;;;5062367;28;20051;-55
2021/03/26 11:31:38;;;;;;;74.28;49.50;;;15.00;66.00;;;;;;5070618;28;20078;-52
2021/03/26 11:34:27;;;;;;;69.43;49.65;;;15.00;65.60;;;;;;5074716;28;20029;-53
2021/03/26 11:37:04;;;;;;;70.32;50.80;;;15.10;65.50;;;;;;5057610;28;20048;-55
2021/03/26 11:39:50;;;;;;;71.63;51.47;;;15.30;65.10;;;;;;5051689;28;20036;-55
2021/03/26 11:42:16;;;;;;;69.25;49.85;;;15.40;64.30;;;;;;5074476;28;20029;-55
2021/03/26 11:45:20;;;;;;;75.78;54.08;;;15.50;63.30;;;;;;5070282;28;20527;-54
2021/03/26 11:47:57;;;;;;;69.65;51.42;;;15.30;64.20;;;;;;5020368;28;20037;-58
2021/03/26 11:50:27;;;;;;;73.97;54.17;;;15.20;64.40;;;;;;5072816;28;20028;-52
2021/03/26 11:53:07;;;;;;;70.07;51.50;;;15.20;63.20;;;;;;5073390;28;20044;-55
2021/03/26 11:55:37;;;;;;;77.82;52.90;;;15.10;63.10;;;;;;5055884;28;20078;-51
2021/03/26 11:58:10;;;;;;;79.65;53.60;;;15.20;62.70;;;;;;5073278;28;20111;-54
2021/03/26 12:00:38;;;;;;;66.97;50.20;;;15.20;63.20;;;;;;5072563;28;20076;-54
2021/03/26 12:03:30;;;;;;;73.03;49.75;;;15.40;62.20;;;;;;5054219;28;20031;-59
2021/03/26 12:06:02;;;;;;;72.57;50.50;;;15.30;62.20;;;;;;5064973;28;20041;-52
2021/03/26 12:08:41;;;;;;;70.75;48.53;;;15.30;62.40;;;;;;5058183;28;20033;-52
2021/03/26 12:11:14;;;;;;;59.58;43.35;;;15.30;62.40;;;;;;5062306;28;20128;-52
2021/03/26 12:14:10;;;;;;;62.63;45.40;;;15.10;62.10;;;;;;5073336;28;20031;-57
2021/03/26 12:16:42;;;;;;;60.40;41.47;;;15.20;62.70;;;;;;5056764;28;20680;-58
2021/03/26 12:19:20;;;;;;;57.40;40.50;;;15.40;61.20;;;;;;5072521;28;20033;-57
2021/03/26 12:22:01;;;;;;;51.13;36.65;;;15.10;61.10;;;;;;5060090;28;20049;-58
2021/03/26 12:24:38;;;;;;;49.35;37.70;;;15.10;60.30;;;;;;5065836;28;20043;-52
2021/03/26 12:27:20;;;;;;;55.30;39.67;;;15.20;60.40;;;;;;5068993;28;20027;-56
2021/03/26 12:30:10;;;;;;;51.65;38.67;;;15.30;60.80;;;;;;5064706;28;20045;-53
2021/03/26 12:32:44;;;;;;;47.58;36.78;;;15.40;60.20;;;;;;5088176;28;20051;-55
2021/03/26 12:35:24;;;;;;;37.60;28.10;;;15.50;59.90;;;;;;5064631;28;20112;-57
2021/03/26 12:37:58;;;;;;;38.05;26.85;;;15.50;56.20;;;;;;5053084;28;20036;-51
2021/03/26 12:40:39;;;;;;;37.03;27.23;;;15.50;55.60;;;;;;5069640;28;20432;-54
2021/03/26 12:43:27;;;;;;;35.63;26.88;;;15.60;55.00;;;;;;5064964;28;20492;-58
2021/03/26 12:45:58;;;;;;;36.28;26.17;;;15.70;54.80;;;;;;5064936;28;20039;-57
2021/03/26 12:48:34;;;;;;;37.30;27.38;;;15.80;54.00;;;;;;5067908;28;20028;-56
2021/03/26 12:51:15;;;;;;;39.30;29.13;;;15.60;54.50;;;;;;5071301;28;20037;-56
2021/03/26 12:53:53;;;;;;;43.80;31.45;;;15.50;55.80;;;;;;5072618;28;20379;-56
2021/03/26 12:56:27;;;;;;;34.50;26.83;;;15.60;56.30;;;;;;5053200;28;20083;-59
2021/03/26 12:58:53;;;;;;;;;;;15.60;53.90;;;;;;5053071;28;20045;-59
2021/03/26 13:01:27;;;;;;;33.33;26.08;;;15.60;55.10;;;;;;5071472;28;20298;-56
2021/03/26 13:04:22;;;;;;;36.08;26.58;;;15.80;55.20;;;;;;5072965;28;20484;-57
2021/03/26 13:06:49;;;;;;;36.00;26.13;;;16.20;54.50;;;;;;5052807;28;20069;-56
2021/03/26 13:09:31;;;;;;;36.47;26.42;;;16.60;53.10;;;;;;5066235;28;20097;-57
2021/03/26 13:12:05;;;;;;;33.35;25.42;;;16.80;50.90;;;;;;5072695;28;20542;-53
2021/03/26 13:14:39;;;;;;;34.80;26.45;;;16.70;50.90;;;;;;5052006;28;20531;-59
2021/03/26 13:17:14;;;;;;;;;;;16.70;51.50;;;;;;5035261;28;20128;-57
2021/03/26 13:19:40;;;;;;;36.30;27.27;;;16.60;51.80;;;;;;5055676;28;20003;-55
2021/03/26 13:22:39;;;;;;;36.42;26.98;;;16.80;52.00;;;;;;5071742;28;20041;-57
2021/03/26 13:25:13;;;;;;;35.95;27.05;;;16.60;51.70;;;;;;5056959;28;20476;-54
2021/03/26 13:27:54;;;;;;;33.05;26.95;;;16.40;52.50;;;;;;5065695;28;20036;-57
2021/03/26 13:30:50;;;;;;;32.22;25.10;;;16.40;52.80;;;;;;5036522;28;20033;-55
2021/03/26 13:33:57;;;;;;;34.38;26.77;;;16.90;52.10;;;;;;5059253;28;20430;-56